Time;durP1;ratioP1;P1;durP2;ratioP2;P2;SDS_P1;SDS_P2;PMS_P1;PMS_P2;Temp;Humidity;BMP_temperature;BMP_pressure;BME280_temperature;BME280_humidity;BME280_pressure;Samples;Min_cycle;Max_cycle;Signal;HPM_P1;HPM_P2
2022/02/03 00:00:23;;;;;;;17.13;11.75;;;6.20;58.00;;;;;;7365756;19;20003;-61
2022/02/03 00:03:07;;;;;;;18.75;11.70;;;6.20;58.60;;;;;;7364142;19;20081;-62
2022/02/03 00:05:45;;;;;;;19.17;12.45;;;6.20;58.80;;;;;;7382773;19;20011;-61
2022/02/03 00:11:26;;;;;;;17.70;11.93;;;6.20;59.70;;;;;;7362338;19;20113;-61
2022/02/03 00:22:14;;;;;;;19.42;13.05;;;6.10;59.60;;;;;;7363771;19;20014;-61
2022/02/03 00:25:00;;;;;;;18.60;12.68;;;6.20;60.10;;;;;;7362905;19;20035;-60
2022/02/03 00:27:50;;;;;;;19.60;12.90;;;6.20;60.20;;;;;;7359789;19;20006;-60
2022/02/03 00:30:23;;;;;;;19.67;13.32;;;6.20;60.30;;;;;;7363700;19;20014;-60
2022/02/03 00:33:13;;;;;;;22.95;13.88;;;6.20;60.20;;;;;;7362889;19;20015;-60
2022/02/03 00:48:19;;;;;;;19.30;13.40;;;6.10;60.10;;;;;;7385113;19;20015;-61
2022/02/03 00:49:57;;;;;;;20.98;13.43;;;6.10;61.00;;;;;;7363609;19;20470;-61
2022/02/03 00:52:28;;;;;;;18.70;13.23;;;6.10;61.20;;;;;;7361155;19;20082;-61
2022/02/03 00:54:58;;;;;;;21.30;14.32;;;6.20;61.50;;;;;;7362506;19;20014;-60
2022/02/03 00:57:34;;;;;;;23.50;15.68;;;6.20;61.50;;;;;;7356743;19;20047;-61
2022/02/03 01:00:09;;;;;;;20.75;13.40;;;6.10;61.60;;;;;;7361156;19;20953;-61
2022/02/03 01:02:44;;;;;;;21.35;14.60;;;6.10;61.70;;;;;;7385372;19;20082;-60
2022/02/03 01:05:15;;;;;;;20.88;14.13;;;6.20;62.20;;;;;;7364185;19;20016;-60
2022/02/03 01:07:49;;;;;;;20.15;14.00;;;6.20;62.00;;;;;;7353314;19;20030;-61
2022/02/03 01:10:24;;;;;;;22.58;14.15;;;6.10;61.90;;;;;;7363260;19;20007;-61
2022/02/03 01:13:05;;;;;;;19.45;13.18;;;6.10;62.10;;;;;;7365229;19;20376;-60
2022/02/03 01:15:41;;;;;;;22.02;13.90;;;6.10;62.20;;;;;;7355285;19;20391;-60
2022/02/03 01:18:42;;;;;;;20.48;14.05;;;6.10;63.10;;;;;;7357619;19;20384;-60
2022/02/03 01:35:00;;;;;;;20.20;14.02;;;6.20;63.20;;;;;;7364012;19;19915;-60
2022/02/03 01:37:50;;;;;;;19.77;13.85;;;6.30;63.40;;;;;;7353109;19;20017;-59
2022/02/03 01:43:28;;;;;;;20.35;13.57;;;6.30;63.40;;;;;;7363636;19;20425;-60
2022/02/03 01:46:11;;;;;;;20.75;14.27;;;6.30;63.40;;;;;;7356099;19;20075;-61
2022/02/03 01:49:02;;;;;;;19.20;13.73;;;6.30;63.50;;;;;;7357948;19;20025;-60
2022/02/03 01:51:43;;;;;;;21.85;14.50;;;6.30;63.50;;;;;;7363899;19;20086;-60
2022/02/03 01:54:16;;;;;;;22.10;14.80;;;6.30;63.50;;;;;;7362262;19;20014;-60
2022/02/03 01:56:53;;;;;;;25.55;14.77;;;6.30;63.70;;;;;;7376119;19;20010;-60
2022/02/03 01:59:25;;;;;;;25.30;15.70;;;6.30;63.90;;;;;;7359484;19;20021;-60
2022/02/03 02:02:05;;;;;;;22.30;14.98;;;6.20;63.60;;;;;;7363216;19;20019;-60
2022/02/03 02:04:57;;;;;;;20.95;13.65;;;6.20;63.80;;;;;;7361749;19;20036;-60
2022/02/03 02:07:36;;;;;;;23.73;14.40;;;6.20;64.00;;;;;;7352341;19;20467;-60
2022/02/03 02:10:28;;;;;;;19.27;13.52;;;6.20;64.30;;;;;;7361517;19;20010;-61
2022/02/03 02:13:38;;;;;;;20.85;13.73;;;6.20;64.40;;;;;;7364181;19;20106;-60
2022/02/03 02:16:29;;;;;;;24.58;14.18;;;6.20;64.60;;;;;;7355800;19;20007;-60
2022/02/03 02:19:15;;;;;;;22.25;14.55;;;6.20;64.70;;;;;;7359428;19;20041;-61
2022/02/03 02:38:41;;;;;;;23.85;15.63;;;6.20;65.20;;;;;;7364023;19;20003;-60
2022/02/03 02:44:08;;;;;;;19.92;13.38;;;6.30;65.50;;;;;;7368051;19;20022;-60
2022/02/03 02:46:46;;;;;;;19.98;13.80;;;6.30;65.60;;;;;;7361150;19;20091;-60
2022/02/03 02:49:28;;;;;;;18.48;12.98;;;6.40;65.80;;;;;;7365435;19;20050;-60
2022/02/03 02:52:04;;;;;;;19.55;13.45;;;6.40;65.90;;;;;;7367402;19;20367;-61
2022/02/03 02:55:02;;;;;;;19.15;13.05;;;6.50;66.10;;;;;;7369237;19;20010;-60
2022/02/03 03:01:17;;;;;;;17.42;12.35;;;6.50;66.10;;;;;;7366057;19;20010;-59
2022/02/03 03:34:53;;;;;;;18.67;9.48;;;6.70;66.50;;;;;;7365479;19;20081;-61
2022/02/03 03:37:31;;;;;;;13.82;9.57;;;6.70;66.50;;;;;;7358342;19;20011;-60
2022/02/03 03:40:06;;;;;;;13.52;8.90;;;6.70;66.40;;;;;;7367143;19;20011;-60
2022/02/03 03:42:39;;;;;;;12.85;9.48;;;6.70;66.40;;;;;;7366188;19;20035;-61
2022/02/03 03:45:11;;;;;;;12.82;9.05;;;6.70;66.30;;;;;;7366131;19;20541;-62
2022/02/03 03:47:43;;;;;;;11.80;8.52;;;6.70;66.40;;;;;;7381136;19;20127;-61
2022/02/03 03:50:18;;;;;;;14.63;8.40;;;6.70;66.30;;;;;;7364669;19;20015;-61
2022/02/03 03:52:55;;;;;;;12.52;8.18;;;6.70;66.20;;;;;;7364651;19;20531;-61
2022/02/03 03:55:40;;;;;;;10.63;7.30;;;6.70;66.10;;;;;;7363337;19;20011;-61
2022/02/03 04:39:04;;;;;;;17.25;11.13;;;6.60;65.40;;;;;;7383688;19;20473;-59
2022/02/03 04:42:27;;;;;;;16.42;11.48;;;6.50;65.10;;;;;;7364548;19;20041;-61
2022/02/03 04:45:34;;;;;;;18.02;11.73;;;6.50;65.20;;;;;;7263524;19;2004502;-61
2022/02/03 04:57:24;;;;;;;18.77;11.75;;;6.50;65.40;;;;;;7355144;19;20506;-61
2022/02/03 05:00:33;;;;;;;16.90;11.32;;;6.50;65.80;;;;;;7362543;19;20035;-62
2022/02/03 05:03:50;;;;;;;19.13;12.43;;;6.50;65.80;;;;;;7366438;19;20400;-61
2022/02/03 05:06:45;;;;;;;17.27;12.00;;;6.50;65.70;;;;;;7354398;19;20478;-60
2022/02/03 05:09:51;;;;;;;16.27;11.43;;;6.50;65.80;;;;;;7361784;19;20029;-61
2022/02/03 05:12:48;;;;;;;15.80;11.48;;;6.50;65.80;;;;;;7363476;19;20082;-61
2022/02/03 05:15:39;;;;;;;20.63;12.30;;;6.50;65.80;;;;;;7364963;19;20014;-62
2022/02/03 05:19:06;;;;;;;17.77;12.43;;;6.50;65.70;;;;;;7361564;19;20113;-62
2022/02/03 05:22:45;;;;;;;17.63;11.15;;;6.40;65.50;;;;;;7362507;19;20027;-62
2022/02/03 05:43:36;;;;;;;13.23;9.63;;;6.30;65.40;;;;;;7360914;19;19911;-61
2022/02/03 05:49:29;;;;;;;15.65;8.68;;;6.20;65.40;;;;;;7359422;19;20385;-61
2022/02/03 05:52:31;;;;;;;11.82;8.32;;;6.20;65.40;;;;;;7364365;19;20760;-62
2022/02/03 05:55:35;;;;;;;12.15;8.40;;;6.10;65.40;;;;;;7364052;19;20013;-61
2022/02/03 06:01:12;;;;;;;11.82;7.85;;;6.10;65.60;;;;;;7369420;19;20381;-61
2022/02/03 06:06:48;;;;;;;12.13;7.88;;;6.10;65.50;;;;;;7360862;19;20742;-61
2022/02/03 06:09:38;;;;;;;11.65;7.63;;;6.20;65.70;;;;;;7367505;19;20007;-61
2022/02/03 06:15:09;;;;;;;11.27;7.82;;;6.20;65.60;;;;;;7368327;19;20029;-62
2022/02/03 06:21:24;;;;;;;11.25;7.45;;;6.30;65.50;;;;;;7262061;19;2004455;-61
2022/02/03 06:24:00;;;;;;;11.73;7.38;;;6.30;65.20;;;;;;7368772;19;20074;-60
2022/02/03 06:29:16;;;;;;;10.07;7.03;;;6.40;64.70;;;;;;7366237;19;20049;-61
2022/02/03 06:31:48;;;;;;;10.98;6.68;;;6.40;64.20;;;;;;7365203;19;20354;-61
2022/02/03 06:34:23;;;;;;;10.95;7.38;;;6.50;63.60;;;;;;7367956;19;20078;-60
2022/02/03 06:36:55;;;;;;;10.55;7.28;;;6.50;63.50;;;;;;7359509;19;20425;-62
2022/02/03 06:39:27;;;;;;;11.15;7.03;;;6.50;63.50;;;;;;7365527;19;20041;-62
2022/02/03 06:41:59;;;;;;;12.77;6.95;;;6.60;62.80;;;;;;7367283;19;20069;-62
2022/02/03 06:44:34;;;;;;;9.13;7.05;;;6.50;62.10;;;;;;7388317;19;20010;-60
2022/02/03 06:47:09;;;;;;;9.35;7.10;;;6.50;61.80;;;;;;7355151;19;20021;-61
2022/02/03 06:49:51;;;;;;;15.07;7.78;;;6.50;61.30;;;;;;7364802;19;20014;-61
2022/02/03 06:52:27;;;;;;;10.55;7.50;;;6.50;61.40;;;;;;7368083;19;20010;-60
2022/02/03 06:55:05;;;;;;;14.52;9.13;;;6.50;61.50;;;;;;7366053;19;20017;-60
2022/02/03 06:57:41;;;;;;;15.07;9.27;;;6.50;61.40;;;;;;7356956;19;20039;-60
2022/02/03 07:00:18;;;;;;;14.75;9.32;;;6.50;61.10;;;;;;7366924;19;20013;-61
2022/02/03 07:02:52;;;;;;;15.82;8.45;;;6.50;61.00;;;;;;7365342;19;20027;-62
2022/02/03 07:05:24;;;;;;;11.18;8.00;;;6.50;61.10;;;;;;7385374;19;20010;-63
2022/02/03 07:07:55;;;;;;;10.98;7.75;;;6.60;60.90;;;;;;7362632;19;20103;-61
2022/02/03 07:10:26;;;;;;;13.57;8.20;;;6.60;60.60;;;;;;7365038;19;20003;-61
2022/02/03 07:12:58;;;;;;;10.02;7.70;;;6.60;60.40;;;;;;7365041;19;20062;-61
2022/02/03 07:15:28;;;;;;;11.45;6.80;;;6.50;60.00;;;;;;7364505;19;20012;-60
2022/02/03 07:17:59;;;;;;;9.23;7.07;;;6.60;60.30;;;;;;7359399;19;20023;-61
2022/02/03 07:20:34;;;;;;;9.50;6.68;;;6.60;60.10;;;;;;7385333;19;20017;-60
2022/02/03 07:23:06;;;;;;;13.07;7.03;;;6.70;59.70;;;;;;7366934;19;20066;-61
2022/02/03 07:25:36;;;;;;;10.00;6.75;;;6.70;59.90;;;;;;7360926;19;20016;-61
2022/02/03 07:28:08;;;;;;;9.73;7.05;;;6.80;59.50;;;;;;7362022;19;20078;-61
2022/02/03 07:30:39;;;;;;;11.20;6.88;;;6.80;58.70;;;;;;7365072;19;20023;-62
2022/02/03 07:33:10;;;;;;;10.55;7.60;;;6.80;58.30;;;;;;7363661;19;20640;-60
2022/02/03 07:35:45;;;;;;;8.75;6.43;;;6.90;57.70;;;;;;7380979;19;20090;-60
2022/02/03 07:38:15;;;;;;;9.07;6.22;;;6.90;57.50;;;;;;7362861;19;20023;-60
2022/02/03 07:40:44;;;;;;;8.00;6.00;;;6.90;57.10;;;;;;7364727;19;20025;-61
2022/02/03 07:43:14;;;;;;;11.15;6.60;;;6.90;56.30;;;;;;7365697;19;20117;-59
2022/02/03 07:45:44;;;;;;;9.05;6.28;;;6.90;55.90;;;;;;7360766;19;20043;-61
2022/02/03 07:48:14;;;;;;;8.52;6.57;;;6.90;55.80;;;;;;7364009;19;20085;-61
2022/02/03 07:50:47;;;;;;;14.45;6.43;;;6.90;55.70;;;;;;7369762;19;20585;-61
2022/02/03 07:53:17;;;;;;;9.70;6.40;;;7.00;55.50;;;;;;7384405;19;20018;-60
2022/02/03 07:55:47;;;;;;;9.00;5.78;;;7.00;54.70;;;;;;7358479;19;20018;-61
2022/02/03 07:58:16;;;;;;;9.10;5.97;;;7.10;54.60;;;;;;7360911;19;20018;-61
2022/02/03 08:00:47;;;;;;;12.50;6.47;;;7.10;53.60;;;;;;7363816;19;20014;-61
2022/02/03 08:03:17;;;;;;;15.52;11.02;;;7.10;53.50;;;;;;7363133;19;20003;-60
2022/02/03 08:05:56;;;;;;;8.35;6.15;;;7.20;53.40;;;;;;7353131;19;20014;-60
2022/02/03 08:08:31;;;;;;;9.95;6.43;;;7.20;52.20;;;;;;7384283;19;20022;-60
2022/02/03 08:11:04;;;;;;;7.88;5.60;;;7.20;52.10;;;;;;7363210;19;20021;-60
2022/02/03 08:13:39;;;;;;;8.35;5.85;;;7.20;52.00;;;;;;7362302;19;20082;-61
2022/02/03 08:16:15;;;;;;;8.55;5.63;;;7.30;51.60;;;;;;7354864;19;20015;-61
2022/02/03 08:18:49;;;;;;;8.80;5.43;;;7.40;51.40;;;;;;7361350;19;20014;-61
2022/02/03 08:21:22;;;;;;;7.05;4.93;;;7.40;49.80;;;;;;7361568;19;20013;-62
2022/02/03 08:24:15;;;;;;;7.32;4.28;;;7.50;49.20;;;;;;7364763;19;20015;-60
2022/02/03 08:26:52;;;;;;;5.45;4.07;;;7.50;48.40;;;;;;7354870;19;20014;-63
2022/02/03 08:32:11;;;;;;;5.00;3.83;;;7.70;46.50;;;;;;7360274;19;20159;-61
2022/02/03 08:34:59;;;;;;;5.43;3.17;;;7.70;44.60;;;;;;7363850;19;20131;-61
2022/02/03 08:37:43;;;;;;;5.25;3.30;;;7.80;44.50;;;;;;7353240;19;20022;-62
2022/02/03 08:40:22;;;;;;;4.68;3.30;;;7.90;42.60;;;;;;7359775;19;20022;-62
2022/02/03 08:42:52;;;;;;;4.40;3.17;;;8.00;41.70;;;;;;7363217;19;20026;-62
2022/02/03 08:45:22;;;;;;;5.68;3.13;;;8.10;41.10;;;;;;7362915;19;20010;-61
2022/02/03 08:47:52;;;;;;;4.88;3.30;;;8.00;40.80;;;;;;7354184;19;20037;-62
2022/02/03 08:50:23;;;;;;;6.70;3.65;;;8.10;41.00;;;;;;7383423;19;20761;-62
2022/02/03 08:53:06;;;;;;;8.27;4.20;;;8.10;39.50;;;;;;7364199;19;20015;-62
2022/02/03 08:55:45;;;;;;;5.10;3.50;;;8.10;37.90;;;;;;7357470;19;20015;-62
2022/02/03 09:56:15;;;;;;;6.97;5.35;;;9.20;29.10;;;;;;7353649;19;20047;-60
2022/02/03 09:59:06;;;;;;;7.95;5.80;;;9.40;28.40;;;;;;7363920;19;20074;-61
2022/02/03 10:01:44;;;;;;;7.75;5.47;;;9.30;29.20;;;;;;7366012;19;20469;-62
2022/02/03 10:04:19;;;;;;;7.07;5.70;;;9.30;29.80;;;;;;7369156;19;20019;-61
2022/02/03 10:06:59;;;;;;;7.53;5.63;;;9.30;29.20;;;;;;7357327;19;20007;-61
2022/02/03 10:09:39;;;;;;;7.18;5.93;;;9.20;29.50;;;;;;7364292;19;20017;-61
2022/02/03 10:12:10;;;;;;;8.25;5.72;;;9.20;30.30;;;;;;7367152;19;20039;-62
2022/02/03 10:14:47;;;;;;;7.07;5.40;;;9.20;29.20;;;;;;7386137;19;20489;-62
2022/02/03 10:17:19;;;;;;;9.35;6.10;;;9.10;29.20;;;;;;7358111;19;20010;-61
2022/02/03 10:20:13;;;;;;;7.50;5.47;;;9.10;26.10;;;;;;7366353;19;20852;-61
2022/02/03 10:22:49;;;;;;;5.90;4.47;;;9.20;27.80;;;;;;7365555;19;20010;-61
2022/02/03 10:25:24;;;;;;;7.03;5.50;;;9.20;26.90;;;;;;7363071;19;20070;-61
2022/02/03 10:28:03;;;;;;;7.35;4.95;;;9.10;27.00;;;;;;7361013;19;20071;-61
2022/02/03 10:30:46;;;;;;;4.93;3.50;;;9.30;25.90;;;;;;7363247;19;20104;-62
2022/02/03 10:33:17;;;;;;;3.97;3.10;;;9.30;23.30;;;;;;7363229;19;20018;-60
2022/02/03 10:35:51;;;;;;;4.63;3.30;;;9.40;21.40;;;;;;7358660;19;20717;-62
2022/02/03 10:41:39;;;;;;;5.15;2.58;;;9.60;19.10;;;;;;7359963;19;20109;-60
2022/02/03 10:58:41;;;;;;;2.83;2.15;;;9.80;14.70;;;;;;7360235;19;20014;-61
2022/02/03 11:04:15;;;;;;;3.05;2.35;;;9.70;14.40;;;;;;7362849;19;20467;-61
2022/02/03 11:06:56;;;;;;;11.35;7.43;;;9.70;15.60;;;;;;7352985;19;20006;-61
2022/02/03 11:09:38;;;;;;;3.20;2.20;;;10.00;14.20;;;;;;7361330;19;20039;-60
2022/02/03 11:12:16;;;;;;;5.45;1.98;;;9.90;13.70;;;;;;7363594;19;20010;-60
2022/02/03 11:14:46;;;;;;;2.90;2.15;;;9.90;14.20;;;;;;7360427;19;20491;-61
2022/02/03 11:17:19;;;;;;;2.33;2.00;;;9.80;12.10;;;;;;7374749;19;20530;-61
2022/02/03 11:19:55;;;;;;;3.90;2.00;;;9.70;13.60;;;;;;7223083;19;2715539;-60
2022/02/03 11:22:31;;;;;;;3.63;2.30;;;9.80;12.70;;;;;;7362435;19;20019;-63
2022/02/03 11:25:17;;;;;;;2.35;2.13;;;9.80;13.40;;;;;;7364869;19;20035;-60
2022/02/03 11:28:12;;;;;;;3.30;2.08;;;9.90;13.20;;;;;;7356498;19;20031;-61
2022/02/03 11:42:33;;;;;;;2.25;1.60;;;10.20;10.60;;;;;;7365158;19;20007;-61
2022/02/03 11:48:21;;;;;;;2.95;1.90;;;10.30;9.20;;;;;;7358215;19;20042;-63
2022/02/03 11:51:09;;;;;;;2.13;1.77;;;10.30;9.50;;;;;;7364588;19;20077;-61
2022/02/03 12:00:00;;;;;;;10.32;6.60;;;10.40;9.20;;;;;;7360469;19;20088;-61
2022/02/03 12:02:52;;;;;;;3.25;1.70;;;10.60;8.50;;;;;;7363359;19;20018;-61
2022/02/03 12:14:37;;;;;;;3.33;1.60;;;10.40;6.70;;;;;;7362413;19;20031;-61
2022/02/03 12:17:27;;;;;;;2.88;1.75;;;10.20;6.60;;;;;;7355071;19;20455;-61
2022/02/03 12:20:04;;;;;;;3.20;1.88;;;10.40;6.80;;;;;;7361673;19;20019;-61
2022/02/03 12:22:55;;;;;;;3.45;2.03;;;10.50;7.00;;;;;;7361045;19;20013;-61
2022/02/03 12:25:45;;;;;;;2.90;1.60;;;10.50;7.60;;;;;;7360254;19;20153;-61
2022/02/03 12:28:30;;;;;;;2.05;1.67;;;10.60;8.20;;;;;;7362070;19;20385;-62
2022/02/03 12:31:40;;;;;;;2.72;1.52;;;10.70;6.80;;;;;;7363711;19;20078;-61
2022/02/03 12:39:53;;;;;;;3.33;1.55;;;10.80;6.30;;;;;;7360050;19;20078;-61
2022/02/03 12:42:47;;;;;;;3.67;1.52;;;10.60;6.00;;;;;;7362613;19;20109;-61
2022/02/03 12:45:23;;;;;;;2.53;1.50;;;10.50;5.40;;;;;;7361836;19;20010;-61
2022/02/03 12:47:56;;;;;;;4.88;1.67;;;10.60;7.60;;;;;;7357607;19;20759;-61
2022/02/03 12:50:28;;;;;;;3.83;1.77;;;10.70;6.80;;;;;;7385212;19;20014;-61
2022/02/03 12:52:59;;;;;;;3.35;1.77;;;10.60;5.80;;;;;;7360382;19;20014;-61
2022/02/03 12:55:31;;;;;;;2.88;1.40;;;10.70;6.70;;;;;;7358453;19;20010;-61
2022/02/03 12:58:04;;;;;;;50.13;33.47;;;10.70;4.60;;;;;;7359109;19;20031;-61
2022/02/03 13:00:45;;;;;;;2.20;1.75;;;10.90;6.40;;;;;;7359049;19;20018;-61
2022/02/03 13:03:31;;;;;;;3.55;1.35;;;10.90;4.70;;;;;;7361212;19;20011;-60
2022/02/03 13:06:05;;;;;;;2.33;1.48;;;10.80;4.60;;;;;;7355374;19;20538;-61
2022/02/03 13:08:38;;;;;;;6.03;1.65;;;10.90;4.10;;;;;;7380045;19;20018;-61
2022/02/03 13:11:14;;;;;;;1.95;1.60;;;10.90;3.60;;;;;;7357425;19;20014;-61
2022/02/03 13:13:55;;;;;;;4.68;1.60;;;10.70;5.10;;;;;;7359199;19;20092;-60
2022/02/03 13:16:28;;;;;;;2.70;1.52;;;10.70;5.50;;;;;;7352319;19;20017;-62
2022/02/03 13:19:03;;;;;;;3.03;1.60;;;10.80;5.10;;;;;;7355013;19;20034;-61
2022/02/03 13:21:49;;;;;;;4.93;1.80;;;10.90;4.70;;;;;;7361615;19;20078;-61
2022/02/03 13:24:40;;;;;;;5.47;1.30;;;10.90;4.70;;;;;;7363790;19;20023;-61
2022/02/03 13:27:18;;;;;;;2.55;1.40;;;10.80;3.90;;;;;;7350714;19;20104;-60
2022/02/03 13:30:05;;;;;;;4.10;1.55;;;10.80;5.00;;;;;;7357787;19;20011;-61
2022/02/03 13:32:42;;;;;;;2.15;1.60;;;10.80;5.10;;;;;;7382476;19;20474;-62
2022/02/03 13:35:26;;;;;;;5.75;2.63;;;10.80;4.90;;;;;;7362136;19;20014;-60
2022/02/03 13:38:02;;;;;;;5.03;1.80;;;10.70;5.30;;;;;;7352967;19;20025;-62
2022/02/03 13:40:32;;;;;;;3.50;2.13;;;10.70;5.80;;;;;;7359064;19;20036;-61
2022/02/03 13:43:04;;;;;;;7.20;2.30;;;10.70;5.10;;;;;;7362057;19;20011;-61
2022/02/03 13:45:34;;;;;;;4.18;1.55;;;10.60;4.50;;;;;;7353888;19;20085;-61
2022/02/03 13:48:16;;;;;;;2.85;1.60;;;10.70;5.00;;;;;;7354918;19;20021;-60
2022/02/03 13:50:52;;;;;;;8.13;2.00;;;10.50;5.40;;;;;;7366302;19;20074;-61
2022/02/03 13:53:30;;;;;;;5.70;1.80;;;10.60;6.50;;;;;;7380627;19;20575;-60
2022/02/03 14:15:49;;;;;;;4.68;1.83;;;10.60;6.20;;;;;;7355551;19;20006;-61
2022/02/03 14:18:31;;;;;;;5.18;2.05;;;10.50;6.80;;;;;;7364793;19;20028;-60
2022/02/03 14:21:06;;;;;;;3.35;1.95;;;10.60;7.50;;;;;;7367561;19;20010;-63
2022/02/03 14:29:11;;;;;;;3.15;1.55;;;10.50;6.30;;;;;;7364047;19;20027;-60
2022/02/03 14:31:42;;;;;;;5.25;1.45;;;10.60;6.10;;;;;;7366185;19;20019;-61
2022/02/03 14:34:21;;;;;;;3.10;1.35;;;10.60;6.30;;;;;;7367838;19;20066;-61
2022/02/03 14:37:01;;;;;;;3.22;1.65;;;10.40;6.00;;;;;;7357483;19;20007;-60
2022/02/03 14:39:46;;;;;;;5.88;1.98;;;10.30;7.20;;;;;;7365720;19;20014;-61
2022/02/03 14:42:17;;;;;;;2.90;2.20;;;10.40;6.80;;;;;;7362162;19;20105;-62
2022/02/03 14:44:47;;;;;;;3.75;2.30;;;10.00;10.10;;;;;;7360185;19;20061;-62
2022/02/03 14:47:18;;;;;;;3.72;2.38;;;10.00;11.90;;;;;;7379032;19;20018;-62
2022/02/03 14:49:48;;;;;;;4.03;2.42;;;10.00;12.60;;;;;;7361658;19;20055;-61
2022/02/03 14:52:27;;;;;;;3.97;2.60;;;9.80;13.10;;;;;;7363124;19;20074;-61
2022/02/03 15:00:24;;;;;;;3.70;2.42;;;9.80;13.40;;;;;;7363896;19;20094;-62
2022/02/03 15:02:54;;;;;;;2.90;2.33;;;9.90;12.80;;;;;;7362713;19;20036;-62
2022/02/03 15:05:27;;;;;;;3.70;2.30;;;9.90;12.10;;;;;;7388710;19;20085;-61
2022/02/03 15:08:03;;;;;;;3.42;2.42;;;9.90;12.70;;;;;;7360005;19;20102;-62
2022/02/03 15:10:46;;;;;;;3.95;2.35;;;9.90;13.30;;;;;;7365043;19;20024;-61
2022/02/03 15:13:31;;;;;;;7.28;3.10;;;9.80;13.50;;;;;;7368956;19;20134;-62
2022/02/03 15:16:01;;;;;;;3.90;2.95;;;9.80;13.70;;;;;;7356327;19;20070;-62
2022/02/03 15:18:32;;;;;;;3.80;2.47;;;9.70;14.00;;;;;;7362029;19;20007;-62
2022/02/03 15:21:02;;;;;;;5.47;3.13;;;9.70;14.10;;;;;;7362132;19;20074;-61
2022/02/03 15:23:35;;;;;;;4.50;2.80;;;9.70;14.30;;;;;;7384052;19;20007;-62
2022/02/03 15:26:05;;;;;;;5.47;3.10;;;9.60;14.20;;;;;;7355861;19;20018;-61
2022/02/03 15:28:35;;;;;;;6.15;3.42;;;9.60;15.50;;;;;;7362072;19;20083;-63
2022/02/03 15:31:06;;;;;;;3.88;3.00;;;9.60;15.40;;;;;;7362467;19;20106;-61
2022/02/03 15:33:38;;;;;;;5.65;3.33;;;9.60;15.50;;;;;;7365194;19;20357;-62
2022/02/03 15:36:11;;;;;;;4.32;3.25;;;9.60;15.50;;;;;;7358525;19;20077;-62
2022/02/03 15:38:48;;;;;;;4.38;3.03;;;9.60;15.50;;;;;;7383094;19;20124;-61
2022/02/03 15:41:26;;;;;;;3.05;2.67;;;9.50;16.10;;;;;;7361083;19;20032;-62
2022/02/03 15:43:58;;;;;;;4.43;2.72;;;9.40;16.80;;;;;;7360823;19;20014;-63
2022/02/03 15:46:30;;;;;;;5.03;3.03;;;9.40;17.30;;;;;;7349834;19;20010;-62
2022/02/03 15:49:09;;;;;;;6.93;3.20;;;9.20;18.20;;;;;;7358287;19;20470;-66
2022/02/03 16:02:50;;;;;;;5.38;2.80;;;9.00;18.40;;;;;;7381315;19;20060;-61
2022/02/03 16:18:51;;;;;;;6.18;2.80;;;8.70;19.90;;;;;;7361659;19;20090;-61
2022/02/03 16:21:28;;;;;;;4.03;2.65;;;8.70;20.20;;;;;;7362085;19;20014;-60
2022/02/03 16:24:11;;;;;;;6.40;2.90;;;8.70;21.00;;;;;;7362436;19;20086;-61
2022/02/03 16:27:02;;;;;;;6.50;2.92;;;8.60;21.90;;;;;;7376647;19;20069;-61
2022/02/03 16:41:03;;;;;;;3.95;2.83;;;8.40;23.00;;;;;;7361438;19;20029;-60
2022/02/03 16:52:04;;;;;;;3.40;2.97;;;8.30;24.50;;;;;;7361504;19;20100;-61
2022/02/03 16:54:34;;;;;;;6.00;3.38;;;8.30;24.80;;;;;;7360499;19;20006;-61
2022/02/03 16:57:12;;;;;;;5.35;3.80;;;8.20;25.10;;;;;;7350528;19;20078;-61
2022/02/03 16:59:54;;;;;;;10.73;4.00;;;8.10;26.50;;;;;;7381945;19;20040;-61
2022/02/03 17:02:44;;;;;;;6.55;3.72;;;8.10;27.90;;;;;;7262191;19;2004553;-61
2022/02/03 17:05:14;;;;;;;8.68;4.60;;;8.10;29.50;;;;;;7385254;19;20018;-61
2022/02/03 17:07:44;;;;;;;8.10;4.72;;;8.00;30.60;;;;;;7353359;19;20002;-61
2022/02/03 17:10:14;;;;;;;8.35;4.82;;;8.00;32.50;;;;;;7363622;19;20593;-61
2022/02/03 17:12:44;;;;;;;9.20;4.60;;;7.90;33.40;;;;;;7359510;19;20023;-61
2022/02/03 17:15:20;;;;;;;9.27;4.90;;;7.80;34.10;;;;;;7360960;19;20019;-60
2022/02/03 17:17:52;;;;;;;6.88;4.30;;;7.90;33.80;;;;;;7355867;19;20018;-60
2022/02/03 17:20:29;;;;;;;6.50;4.82;;;7.90;33.70;;;;;;7382828;19;20010;-59
2022/02/03 17:23:00;;;;;;;7.00;4.82;;;7.80;33.20;;;;;;7360547;19;20113;-60
2022/02/03 17:25:35;;;;;;;5.80;4.10;;;7.80;33.30;;;;;;7356982;19;20011;-60
2022/02/03 17:28:26;;;;;;;8.18;5.22;;;7.80;33.70;;;;;;7359555;19;20387;-60
2022/02/03 17:31:11;;;;;;;14.93;8.43;;;7.80;34.10;;;;;;7359225;19;20522;-63
2022/02/03 18:09:49;;;;;;;11.60;5.65;;;7.50;32.50;;;;;;7367586;19;20014;-59
2022/02/03 18:31:41;;;;;;;8.18;5.50;;;7.30;32.30;;;;;;7367186;19;20010;-59
2022/02/03 18:37:11;;;;;;;7.95;5.32;;;7.30;32.80;;;;;;7357844;19;20011;-60
2022/02/03 18:50:45;;;;;;;7.63;5.78;;;7.20;33.30;;;;;;7387825;19;20555;-60
2022/02/03 18:53:22;;;;;;;7.85;5.80;;;7.20;33.40;;;;;;7364765;19;20010;-59
2022/02/03 18:56:01;;;;;;;7.70;5.20;;;7.10;33.40;;;;;;7359421;19;20095;-60
2022/02/03 18:58:46;;;;;;;6.60;5.20;;;7.10;33.70;;;;;;7366106;19;20035;-60
2022/02/03 19:15:24;;;;;;;7.57;5.80;;;7.30;33.10;;;;;;7364949;19;20018;-60
2022/02/03 19:26:29;;;;;;;14.48;10.00;;;7.20;31.60;;;;;;7355227;19;20078;-60
2022/02/03 19:56:13;;;;;;;13.80;9.02;;;7.20;32.30;;;;;;7364115;19;20014;-60
2022/02/03 20:03:04;;;;;;;8.20;6.20;;;6.80;35.30;;;;;;7364824;19;20010;-60
2022/02/03 20:05:37;;;;;;;8.65;6.28;;;6.80;35.30;;;;;;7360812;19;20517;-61
2022/02/03 20:08:13;;;;;;;8.90;7.05;;;6.80;35.40;;;;;;7360201;19;20006;-61
2022/02/03 20:10:46;;;;;;;7.32;5.85;;;6.80;35.30;;;;;;7365404;19;20045;-60
2022/02/03 20:13:17;;;;;;;8.43;5.93;;;6.70;35.40;;;;;;7364090;19;20027;-60
2022/02/03 20:15:50;;;;;;;8.95;6.22;;;6.70;35.30;;;;;;7356639;19;20122;-60
2022/02/03 20:18:20;;;;;;;8.40;5.88;;;6.60;35.60;;;;;;7363658;19;20365;-61
2022/02/03 20:20:56;;;;;;;8.13;6.35;;;6.70;36.20;;;;;;7366248;19;20019;-60
2022/02/03 20:23:29;;;;;;;8.50;6.43;;;6.70;36.20;;;;;;7383640;19;20010;-62
2022/02/03 20:25:59;;;;;;;11.07;6.18;;;6.60;36.40;;;;;;7355929;19;20159;-61
2022/02/03 20:28:30;;;;;;;7.55;6.10;;;6.70;36.80;;;;;;7362991;19;20010;-60
2022/02/03 20:31:03;;;;;;;9.80;6.97;;;6.60;36.60;;;;;;7365091;19;20027;-60
2022/02/03 20:33:33;;;;;;;9.20;7.00;;;6.60;36.60;;;;;;7363863;19;20453;-61
2022/02/03 20:36:03;;;;;;;8.55;6.40;;;6.60;36.70;;;;;;7359124;19;20015;-60
2022/02/03 20:38:33;;;;;;;11.48;8.15;;;6.60;36.80;;;;;;7380913;19;20024;-60
2022/02/03 20:41:02;;;;;;;11.77;8.65;;;6.70;37.30;;;;;;7363330;19;20009;-61
2022/02/03 20:43:32;;;;;;;11.05;7.82;;;6.70;37.10;;;;;;7364515;19;20021;-61
2022/02/03 20:46:06;;;;;;;10.90;8.20;;;6.70;37.20;;;;;;7354594;19;20659;-60
2022/02/03 20:48:45;;;;;;;10.68;8.00;;;6.70;37.00;;;;;;7361944;19;20421;-61
2022/02/03 20:51:16;;;;;;;12.20;8.15;;;6.70;37.20;;;;;;7364807;19;20070;-60
2022/02/03 20:53:47;;;;;;;10.90;8.40;;;6.60;37.20;;;;;;7371591;19;20018;-61
2022/02/03 20:56:19;;;;;;;11.63;8.63;;;6.70;37.60;;;;;;7377328;19;20342;-61
2022/02/03 20:58:50;;;;;;;14.90;9.27;;;6.70;36.70;;;;;;7361858;19;20076;-61
2022/02/03 21:01:26;;;;;;;10.70;8.38;;;6.80;36.60;;;;;;7364086;19;20536;-60
2022/02/03 21:04:02;;;;;;;10.30;8.80;;;6.90;36.40;;;;;;7361894;19;20047;-60
2022/02/03 21:06:32;;;;;;;12.85;8.30;;;6.90;35.90;;;;;;7357631;19;20010;-62
2022/02/03 21:09:04;;;;;;;11.20;8.40;;;6.90;35.50;;;;;;7361740;19;20039;-61
2022/02/03 21:11:34;;;;;;;11.77;8.25;;;6.90;35.50;;;;;;7383879;19;20013;-60
2022/02/03 21:14:09;;;;;;;10.70;7.90;;;6.90;36.10;;;;;;7362717;19;20408;-60
2022/02/03 21:16:43;;;;;;;11.60;8.65;;;6.90;36.10;;;;;;7357013;19;20011;-60
2022/02/03 21:19:13;;;;;;;12.18;8.27;;;6.90;36.00;;;;;;7360616;19;20082;-61
2022/02/03 21:21:43;;;;;;;12.25;8.57;;;6.90;36.60;;;;;;7362921;19;20021;-60
2022/02/03 21:24:13;;;;;;;13.13;8.30;;;6.90;36.70;;;;;;7364700;19;20002;-61
2022/02/03 21:26:43;;;;;;;13.07;8.73;;;6.90;36.70;;;;;;7383209;19;20090;-60
2022/02/03 21:29:13;;;;;;;9.35;7.50;;;6.90;36.70;;;;;;7367309;19;20021;-60
2022/02/03 21:31:45;;;;;;;9.75;7.07;;;6.90;36.80;;;;;;7371690;19;20082;-59
2022/02/03 21:34:20;;;;;;;11.20;7.60;;;6.90;37.00;;;;;;7365756;19;20090;-60
2022/02/03 21:36:54;;;;;;;11.07;8.27;;;6.90;37.20;;;;;;7361155;19;20490;-60
2022/02/03 21:39:24;;;;;;;13.10;8.73;;;6.90;37.60;;;;;;7367465;19;20081;-59
2022/02/03 21:41:54;;;;;;;13.30;8.73;;;7.00;37.00;;;;;;7363820;19;20078;-60
2022/02/03 21:44:29;;;;;;;14.02;9.00;;;7.00;36.40;;;;;;7389572;19;20011;-60
2022/02/03 21:47:02;;;;;;;14.02;9.82;;;7.00;35.70;;;;;;7359533;19;20019;-61
2022/02/03 21:49:33;;;;;;;14.98;8.50;;;7.00;35.50;;;;;;7364301;19;20029;-60
2022/02/03 21:52:04;;;;;;;11.88;8.48;;;7.10;35.60;;;;;;7368680;19;20010;-61
2022/02/03 21:54:36;;;;;;;14.45;8.82;;;7.00;35.50;;;;;;7371596;19;20726;-61
2022/02/03 21:57:10;;;;;;;13.57;8.88;;;7.00;35.50;;;;;;7359143;19;20004;-61
2022/02/03 21:59:40;;;;;;;13.35;8.80;;;7.10;35.60;;;;;;7386683;19;20463;-60